Time;durP1;ratioP1;P1;durP2;ratioP2;P2;SDS_P1;SDS_P2;PMS_P1;PMS_P2;Temp;Humidity;BMP_temperature;BMP_pressure;BME280_temperature;BME280_humidity;BME280_pressure;Samples;Min_cycle;Max_cycle;Signal;HPM_P1;HPM_P2
2022/02/03 00:00:02;;;;;;;5.00;1.35;;;9.90;99.90;;;;;;5057875;28;20102;-58
2022/02/03 00:02:46;;;;;;;3.72;1.13;;;9.90;99.90;;;;;;5060337;28;20080;-59
2022/02/03 00:05:21;;;;;;;4.70;1.35;;;10.00;99.90;;;;;;5058368;28;20083;-58
2022/02/03 00:07:59;;;;;;;2.83;1.17;;;10.00;99.90;;;;;;5058828;28;20553;-59
2022/02/03 00:24:25;;;;;;;5.03;1.35;;;9.90;99.90;;;;;;5039927;28;20119;-59
2022/02/03 00:27:23;;;;;;;4.70;1.38;;;9.90;99.90;;;;;;5058465;28;20135;-59
2022/02/03 00:48:45;;;;;;;2.60;1.00;;;10.00;99.90;;;;;;5058982;28;20135;-58
2022/02/03 00:51:12;;;;;;;;;;;10.00;99.90;;;;;;5060899;28;20049;-58
2022/02/03 00:53:39;;;;;;;3.60;1.02;;;9.90;99.90;;;;;;5059601;28;20015;-58
2022/02/03 00:56:13;;;;;;;3.88;1.17;;;9.90;99.90;;;;;;5056803;28;20100;-58
2022/02/03 00:58:49;;;;;;;2.13;1.08;;;9.90;99.90;;;;;;5055206;28;20294;-58
2022/02/03 01:01:17;;;;;;;3.78;1.13;;;9.90;99.90;;;;;;5054816;28;20131;-58
2022/02/03 01:03:45;;;;;;;2.92;1.00;;;9.90;99.90;;;;;;5057749;28;20448;-57
2022/02/03 01:06:12;;;;;;;2.95;1.23;;;9.90;99.90;;;;;;5041372;28;20136;-58
2022/02/03 01:08:42;;;;;;;3.72;1.20;;;9.90;99.90;;;;;;5059751;28;20060;-59
2022/02/03 01:11:15;;;;;;;1.77;0.85;;;9.90;99.90;;;;;;5060224;28;20040;-58
2022/02/03 01:14:02;;;;;;;4.97;1.98;;;9.90;99.90;;;;;;5040938;28;20094;-58
2022/02/03 01:53:39;;;;;;;4.22;1.58;;;9.70;99.90;;;;;;5065544;28;20084;-58
2022/02/03 01:56:07;;;;;;;7.22;1.95;;;9.60;99.90;;;;;;5066304;28;20132;-58
2022/02/03 01:58:49;;;;;;;4.57;1.92;;;9.60;99.90;;;;;;5061860;28;20119;-58
2022/02/03 02:01:28;;;;;;;5.75;2.00;;;9.60;99.90;;;;;;5062782;28;20076;-58
2022/02/03 02:04:03;;;;;;;4.85;2.00;;;9.50;99.90;;;;;;5061844;28;20087;-58
2022/02/03 02:06:54;;;;;;;4.28;1.60;;;9.50;99.90;;;;;;5066433;28;20068;-59
2022/02/03 02:09:59;;;;;;;2.47;1.30;;;9.50;99.90;;;;;;5065889;28;20084;-58
2022/02/03 02:12:57;;;;;;;4.13;1.60;;;9.50;99.90;;;;;;5065337;28;20452;-58
2022/02/03 02:42:53;;;;;;;4.30;1.40;;;9.40;99.90;;;;;;5066878;28;20080;-58
2022/02/03 02:46:05;;;;;;;3.80;1.45;;;9.40;99.90;;;;;;5064431;28;20127;-58
2022/02/03 02:49:11;;;;;;;2.42;1.00;;;9.40;99.90;;;;;;5056342;28;20199;-59
2022/02/03 02:51:53;;;;;;;2.88;0.95;;;9.40;99.90;;;;;;5064689;28;20147;-58
2022/02/03 03:33:02;;;;;;;3.08;1.10;;;9.20;99.90;;;;;;5054821;28;20080;-57
2022/02/03 03:35:43;;;;;;;5.93;2.22;;;9.10;99.90;;;;;;5062471;28;20132;-58
2022/02/03 03:38:11;;;;;;;2.80;1.13;;;9.20;99.90;;;;;;5064901;28;20095;-58
2022/02/03 03:40:42;;;;;;;3.97;1.40;;;9.10;99.90;;;;;;5063347;28;20076;-59
2022/02/03 03:43:11;;;;;;;3.63;1.23;;;9.10;99.90;;;;;;5046775;28;20105;-59
2022/02/03 03:45:45;;;;;;;4.55;1.55;;;9.10;99.90;;;;;;5059907;28;20155;-58
2022/02/03 03:48:16;;;;;;;5.25;1.38;;;9.10;99.90;;;;;;5063498;28;20932;-59
2022/02/03 03:50:43;;;;;;;3.67;1.13;;;9.10;99.90;;;;;;5047197;28;20507;-57
2022/02/03 03:53:17;;;;;;;3.75;1.20;;;9.10;99.90;;;;;;5059184;28;20726;-58
2022/02/03 03:55:52;;;;;;;4.32;1.10;;;9.10;99.90;;;;;;5062809;28;20391;-59
2022/02/03 03:58:42;;;;;;;4.68;2.33;;;9.10;99.90;;;;;;5046736;28;20539;-58
2022/02/03 05:03:36;;;;;;;2.10;1.20;;;8.70;99.90;;;;;;5062465;28;20076;-58
2022/02/03 05:06:29;;;;;;;3.42;1.00;;;8.70;99.90;;;;;;5063003;28;20060;-58
2022/02/03 05:09:28;;;;;;;2.22;0.70;;;8.60;99.90;;;;;;5049630;28;20387;-58
2022/02/03 05:12:19;;;;;;;3.13;1.00;;;8.60;99.90;;;;;;5063496;28;20079;-59
2022/02/03 05:24:41;;;;;;;3.58;0.90;;;8.60;99.90;;;;;;5065915;28;20542;-58
2022/02/03 05:42:41;;;;;;;2.50;0.63;;;8.30;99.90;;;;;;5067151;28;20731;-58
2022/02/03 05:48:37;;;;;;;2.20;0.70;;;8.20;99.90;;;;;;5064905;28;20098;-58
2022/02/03 06:04:33;;;;;;;2.63;0.70;;;8.10;99.90;;;;;;5052490;28;20571;-58
2022/02/03 06:14:38;;;;;;;2.40;0.70;;;8.10;99.90;;;;;;5060419;28;20084;-58
2022/02/03 06:17:28;;;;;;;1.13;0.55;;;8.10;99.90;;;;;;5045535;28;20119;-58
2022/02/03 06:22:48;;;;;;;1.15;0.70;;;8.10;99.90;;;;;;5062749;28;20072;-57
2022/02/03 06:27:55;;;;;;;2.75;0.77;;;8.10;99.90;;;;;;5061968;28;20427;-58
2022/02/03 06:30:22;;;;;;;3.97;0.88;;;8.10;99.90;;;;;;5061966;28;20558;-58
2022/02/03 06:32:49;;;;;;;2.63;1.08;;;8.10;99.90;;;;;;5060692;28;20068;-58
2022/02/03 06:35:17;;;;;;;1.90;1.00;;;8.10;99.90;;;;;;5057778;28;20747;-58
2022/02/03 06:37:47;;;;;;;2.65;0.80;;;8.10;99.90;;;;;;5066546;28;20094;-59
2022/02/03 06:40:14;;;;;;;2.72;0.80;;;8.10;99.90;;;;;;5063817;28;20141;-59
2022/02/03 06:42:41;;;;;;;1.33;0.80;;;8.00;99.90;;;;;;5065210;28;20132;-59
2022/02/03 06:47:53;;;;;;;4.28;0.93;;;8.00;99.90;;;;;;5063427;28;20060;-59
2022/02/03 06:50:25;;;;;;;2.65;0.88;;;8.10;99.90;;;;;;5063087;28;20081;-59
2022/02/03 06:56:31;;;;;;;0.80;0.57;;;8.00;99.90;;;;;;5064082;28;20524;-59
2022/02/03 06:58:23;;;;;;;1.48;1.10;;;8.10;99.90;;;;;;5065470;28;20506;-59
2022/02/03 07:01:16;;;;;;;1.42;0.82;;;8.00;99.90;;;;;;5070740;28;20048;-59
2022/02/03 07:03:43;;;;;;;2.20;0.80;;;8.00;99.90;;;;;;5067327;28;20151;-59
2022/02/03 07:06:13;;;;;;;1.80;0.95;;;8.00;99.90;;;;;;5058621;28;20091;-59
2022/02/03 07:08:42;;;;;;;2.03;0.70;;;8.00;99.90;;;;;;5059943;28;20136;-59
2022/02/03 07:11:15;;;;;;;1.55;0.90;;;8.00;99.90;;;;;;5069534;28;20127;-59
2022/02/03 07:13:42;;;;;;;2.33;1.00;;;8.00;99.90;;;;;;5064986;28;20107;-59
2022/02/03 07:16:09;;;;;;;2.08;0.93;;;7.90;99.90;;;;;;5067351;28;20079;-59
2022/02/03 07:18:36;;;;;;;1.42;0.80;;;7.90;99.90;;;;;;5078356;28;20088;-59
2022/02/03 07:21:03;;;;;;;3.03;0.75;;;7.90;99.90;;;;;;5070317;28;20862;-59
2022/02/03 07:23:29;;;;;;;0.60;0.50;;;7.90;99.90;;;;;;5072236;28;20143;-59
2022/02/03 07:25:56;;;;;;;2.00;0.85;;;7.90;99.90;;;;;;5085928;28;20165;-57
2022/02/03 07:28:23;;;;;;;1.65;0.70;;;7.90;99.90;;;;;;5084372;28;20499;-55
2022/02/03 07:30:50;;;;;;;1.65;1.17;;;7.90;99.90;;;;;;5065858;28;20095;-59
2022/02/03 07:33:16;;;;;;;1.35;0.73;;;7.90;99.90;;;;;;5064746;28;20049;-59
2022/02/03 07:35:46;;;;;;;1.58;0.70;;;7.80;99.90;;;;;;5066233;28;20135;-59
2022/02/03 07:38:12;;;;;;;1.85;0.50;;;7.80;99.90;;;;;;5064592;28;20491;-59
2022/02/03 07:40:41;;;;;;;1.20;0.50;;;7.80;99.90;;;;;;5058046;28;20489;-59
2022/02/03 07:43:10;;;;;;;0.40;0.40;;;7.80;99.90;;;;;;5058094;28;20092;-59
2022/02/03 07:45:37;;;;;;;1.23;0.50;;;7.80;99.90;;;;;;5056563;28;20080;-59
2022/02/03 07:48:04;;;;;;;1.45;0.55;;;7.80;99.90;;;;;;5058577;28;20106;-59
2022/02/03 07:50:31;;;;;;;1.65;0.50;;;7.80;99.90;;;;;;5059151;28;20496;-59
2022/02/03 07:52:58;;;;;;;1.48;0.63;;;7.90;99.90;;;;;;5057533;28;20083;-59
2022/02/03 07:55:25;;;;;;;1.42;0.70;;;7.90;99.90;;;;;;5058440;28;20048;-59
2022/02/03 07:57:53;;;;;;;2.05;0.50;;;8.00;99.90;;;;;;5057496;28;20091;-59
2022/02/03 08:00:21;;;;;;;1.25;0.60;;;8.00;99.90;;;;;;5057589;28;20128;-59
2022/02/03 08:03:12;;;;;;;1.70;0.55;;;8.10;99.90;;;;;;5057743;28;20431;-59
2022/02/03 08:05:41;;;;;;;0.30;0.30;;;8.10;99.90;;;;;;5058867;28;20052;-58
2022/02/03 08:08:22;;;;;;;1.70;0.30;;;8.10;99.90;;;;;;5057549;28;20161;-59
2022/02/03 08:10:56;;;;;;;1.10;0.50;;;8.10;99.90;;;;;;5043196;28;20080;-59
2022/02/03 08:13:28;;;;;;;0.47;0.30;;;8.20;99.90;;;;;;5057528;28;20048;-58
2022/02/03 08:16:12;;;;;;;1.48;0.40;;;8.30;99.90;;;;;;5058612;28;20083;-59
2022/02/03 08:18:41;;;;;;;0.85;0.40;;;8.30;99.90;;;;;;5057749;28;20072;-59
2022/02/03 08:21:11;;;;;;;2.60;0.55;;;8.40;99.90;;;;;;5058942;28;20094;-59
2022/02/03 08:26:46;;;;;;;1.08;0.40;;;8.40;99.90;;;;;;5061698;28;20515;-58
2022/02/03 08:29:46;;;;;;;0.88;0.40;;;8.50;99.90;;;;;;5058455;28;20059;-59
2022/02/03 08:32:16;;;;;;;1.17;0.75;;;8.50;99.90;;;;;;5056139;28;20102;-59
2022/02/03 08:34:47;;;;;;;1.05;0.50;;;8.60;99.90;;;;;;5059525;28;20047;-60
2022/02/03 08:37:15;;;;;;;0.35;0.30;;;8.60;99.90;;;;;;5069298;28;20535;-59
2022/02/03 08:39:54;;;;;;;1.52;0.45;;;8.60;99.90;;;;;;5064655;28;20084;-59
2022/02/03 08:42:21;;;;;;;0.38;0.28;;;8.70;99.90;;;;;;5067880;28;20141;-60
2022/02/03 08:44:48;;;;;;;0.93;0.30;;;8.70;99.90;;;;;;5063934;28;20060;-59
2022/02/03 08:47:15;;;;;;;0.20;0.20;;;8.70;99.90;;;;;;5061473;28;20040;-59
2022/02/03 08:49:46;;;;;;;1.40;0.30;;;8.70;99.90;;;;;;5059715;28;20044;-59
2022/02/03 08:52:17;;;;;;;1.38;0.30;;;8.70;99.90;;;;;;5065504;28;20048;-59
2022/02/03 08:55:02;;;;;;;0.73;0.40;;;8.80;99.90;;;;;;5064741;28;20601;-59
2022/02/03 08:57:39;;;;;;;1.27;0.30;;;8.80;99.90;;;;;;5068993;28;20044;-59
2022/02/03 09:40:47;;;;;;;0.35;0.35;;;9.50;99.90;;;;;;5062263;28;20099;-59
2022/02/03 09:59:37;;;;;;;0.65;0.40;;;9.60;99.90;;;;;;5072622;28;20079;-59
2022/02/03 10:02:12;;;;;;;0.50;0.40;;;9.50;99.90;;;;;;5078086;28;20139;-60
2022/02/03 10:04:47;;;;;;;0.60;0.40;;;9.60;99.90;;;;;;5059401;28;20049;-60
2022/02/03 10:07:21;;;;;;;2.42;0.70;;;9.60;99.90;;;;;;5037979;28;20088;-59
2022/02/03 10:09:52;;;;;;;1.92;0.73;;;9.60;99.90;;;;;;5048868;28;20060;-60
2022/02/03 10:12:29;;;;;;;1.02;0.60;;;9.60;99.90;;;;;;5059030;28;20547;-59
2022/02/03 10:14:56;;;;;;;0.80;0.57;;;9.70;99.90;;;;;;5056373;28;20049;-59
2022/02/03 10:17:45;;;;;;;2.08;0.80;;;9.70;99.90;;;;;;5058119;28;20053;-59
2022/02/03 10:20:15;;;;;;;1.35;0.70;;;9.70;99.90;;;;;;5054849;28;20110;-59
2022/02/03 10:22:52;;;;;;;1.27;0.80;;;9.80;99.90;;;;;;5058855;28;20520;-59
2022/02/03 10:25:26;;;;;;;1.00;0.90;;;9.70;99.90;;;;;;5058459;28;20497;-59
2022/02/03 10:27:58;;;;;;;0.90;0.70;;;9.70;99.90;;;;;;5051878;28;20095;-59
2022/02/03 10:30:28;;;;;;;1.25;0.85;;;9.70;99.90;;;;;;5055717;28;20071;-59
2022/02/03 10:32:54;;;;;;;0.60;0.60;;;9.80;99.90;;;;;;5053954;28;20616;-60
2022/02/03 10:35:48;;;;;;;0.60;0.50;;;9.90;99.90;;;;;;5060605;28;20063;-60
2022/02/03 10:52:16;;;;;;;2.42;0.75;;;10.30;99.90;;;;;;5059875;28;20106;-59
2022/02/03 11:02:42;;;;;;;1.10;0.77;;;10.70;99.90;;;;;;5069123;28;20322;-59
2022/02/03 11:05:23;;;;;;;1.88;0.60;;;10.70;99.90;;;;;;5059403;28;20143;-59
2022/02/03 11:08:02;;;;;;;1.45;0.70;;;10.70;99.90;;;;;;5059048;28;20044;-59
2022/02/03 11:10:39;;;;;;;1.00;0.65;;;10.70;99.90;;;;;;5062305;28;20075;-59
2022/02/03 11:13:05;;;;;;;2.17;0.80;;;10.70;99.90;;;;;;5042430;28;20052;-59
2022/02/03 11:15:33;;;;;;;1.15;0.80;;;10.60;99.90;;;;;;5044327;28;20167;-58
2022/02/03 11:18:03;;;;;;;1.52;0.82;;;10.70;99.90;;;;;;5059160;28;20135;-58
2022/02/03 11:20:32;;;;;;;1.92;0.90;;;10.70;99.90;;;;;;5055297;28;20114;-59
2022/02/03 11:40:21;;;;;;;1.98;1.38;;;11.00;99.90;;;;;;5041028;28;21035;-57
2022/02/03 11:45:43;;;;;;;1.05;0.68;;;10.80;99.90;;;;;;5055133;28;20293;-57
2022/02/03 12:15:20;;;;;;;0.90;0.57;;;10.90;99.90;;;;;;5070874;28;20419;-60
2022/02/03 12:18:01;;;;;;;1.08;0.70;;;10.90;99.90;;;;;;5057207;28;20147;-60
2022/02/03 12:23:58;;;;;;;1.10;0.65;;;11.10;99.90;;;;;;5056386;28;20133;-58
2022/02/03 12:26:42;;;;;;;;;;;11.20;99.90;;;;;;5057054;28;20043;-58
2022/02/03 12:29:30;;;;;;;1.40;0.57;;;11.20;99.90;;;;;;5056601;28;19986;-58
2022/02/03 12:32:20;;;;;;;0.82;0.73;;;11.00;99.90;;;;;;5053567;28;20140;-59
2022/02/03 12:40:25;;;;;;;1.80;0.80;;;11.20;99.90;;;;;;5055351;28;20114;-59
2022/02/03 12:42:56;;;;;;;1.42;1.20;;;11.20;99.90;;;;;;5055121;28;20084;-59
2022/02/03 12:45:28;;;;;;;1.60;0.95;;;11.10;99.90;;;;;;5055499;28;20100;-59
2022/02/03 12:47:58;;;;;;;1.67;1.20;;;11.00;99.90;;;;;;5055804;28;20394;-59
2022/02/03 12:50:27;;;;;;;1.55;0.80;;;11.00;99.90;;;;;;5054748;28;20060;-59
2022/02/03 12:52:55;;;;;;;0.95;0.68;;;11.00;99.90;;;;;;5056702;28;20084;-58
2022/02/03 12:55:35;;;;;;;2.38;1.23;;;11.00;99.90;;;;;;5054455;28;20053;-59
2022/02/03 12:58:05;;;;;;;1.73;1.02;;;11.00;99.90;;;;;;5055266;28;20061;-59
2022/02/03 13:00:40;;;;;;;0.93;0.77;;;10.90;99.90;;;;;;5054891;28;20757;-59
2022/02/03 13:03:19;;;;;;;0.98;0.65;;;11.00;99.90;;;;;;5056537;28;20127;-58
2022/02/03 13:05:57;;;;;;;1.15;0.90;;;11.00;99.90;;;;;;5057477;28;20878;-59
2022/02/03 13:08:36;;;;;;;1.60;1.10;;;11.00;99.90;;;;;;5054849;28;20044;-59
2022/02/03 13:11:12;;;;;;;1.52;0.90;;;10.90;99.90;;;;;;5058517;28;20056;-59
2022/02/03 13:16:24;;;;;;;1.40;0.88;;;10.80;99.90;;;;;;5063915;28;20467;-60
2022/02/03 13:19:15;;;;;;;0.68;0.55;;;10.80;99.90;;;;;;5061755;28;20145;-59
2022/02/03 13:25:03;;;;;;;3.13;0.95;;;10.90;99.90;;;;;;5057034;28;20092;-59
2022/02/03 13:27:03;;;;;;;2.00;0.60;;;11.00;99.90;;;;;;5052785;28;20167;-59
2022/02/03 13:29:46;;;;;;;1.48;0.70;;;11.00;99.90;;;;;;5054534;28;20080;-59
2022/02/03 13:32:20;;;;;;;1.90;0.95;;;11.00;99.90;;;;;;5056248;28;20476;-59
2022/02/03 13:35:21;;;;;;;1.83;1.08;;;11.10;99.90;;;;;;5057006;28;20148;-59
2022/02/03 13:37:42;;;;;;;1.42;0.63;;;11.10;99.90;;;;;;5063405;28;20171;-59
2022/02/03 13:40:17;;;;;;;1.00;0.63;;;11.00;99.90;;;;;;5065333;28;20067;-60
2022/02/03 13:42:52;;;;;;;1.02;0.80;;;11.10;99.90;;;;;;5060210;28;20503;-59
2022/02/03 13:45:22;;;;;;;1.20;0.63;;;11.10;99.90;;;;;;5060189;28;20076;-60
2022/02/03 13:47:49;;;;;;;0.82;0.70;;;11.20;99.90;;;;;;5058132;28;20102;-60
2022/02/03 13:50:24;;;;;;;1.05;0.73;;;11.10;99.90;;;;;;5061150;28;20139;-59
2022/02/03 13:53:04;;;;;;;2.47;0.98;;;11.20;99.90;;;;;;5058432;28;20562;-59
2022/02/03 14:15:53;;;;;;;1.08;0.68;;;11.20;99.90;;;;;;5048620;28;20135;-59
2022/02/03 14:18:47;;;;;;;1.05;0.60;;;11.20;99.90;;;;;;5058083;28;20318;-59
2022/02/03 14:21:20;;;;;;;1.13;0.80;;;11.10;99.90;;;;;;5057195;28;20053;-58
2022/02/03 14:29:13;;;;;;;1.17;0.70;;;10.90;99.90;;;;;;5054934;28;20041;-60
2022/02/03 14:31:42;;;;;;;0.88;0.40;;;10.90;99.90;;;;;;5060645;28;20131;-59
2022/02/03 14:34:15;;;;;;;2.38;0.77;;;10.80;99.90;;;;;;5056915;28;20075;-59
2022/02/03 14:36:46;;;;;;;1.33;0.60;;;10.80;99.90;;;;;;5060585;28;20465;-60
2022/02/03 14:39:18;;;;;;;0.77;0.50;;;10.70;99.90;;;;;;5056900;28;20140;-59
2022/02/03 14:41:47;;;;;;;1.85;0.52;;;10.70;99.90;;;;;;5059466;28;20776;-60
2022/02/03 14:44:17;;;;;;;0.75;0.55;;;10.70;99.90;;;;;;5055676;28;20077;-60
2022/02/03 14:46:45;;;;;;;3.38;0.75;;;10.70;99.90;;;;;;5057843;28;20056;-58
2022/02/03 14:49:11;;;;;;;0.95;0.60;;;10.60;99.90;;;;;;5058641;28;20083;-60
2022/02/03 14:51:52;;;;;;;1.50;0.80;;;10.60;99.90;;;;;;5063707;28;20044;-58
2022/02/03 14:59:42;;;;;;;0.70;0.52;;;10.70;99.90;;;;;;5047589;28;20146;-59
2022/02/03 15:02:09;;;;;;;1.75;0.80;;;10.80;99.90;;;;;;5059980;28;20142;-59
2022/02/03 15:04:38;;;;;;;1.30;0.68;;;10.70;99.90;;;;;;5058311;28;20068;-59
2022/02/03 15:07:08;;;;;;;2.60;0.98;;;10.70;99.90;;;;;;5058498;28;20079;-58
2022/02/03 15:12:38;;;;;;;1.30;0.80;;;10.70;99.90;;;;;;5062133;28;20143;-59
2022/02/03 15:15:06;;;;;;;0.40;0.40;;;10.70;99.90;;;;;;5069100;28;20128;-59
2022/02/03 15:17:35;;;;;;;0.63;0.55;;;10.70;99.90;;;;;;5063467;28;20056;-59
2022/02/03 15:20:05;;;;;;;0.60;0.40;;;10.70;99.90;;;;;;5057253;28;20106;-59
2022/02/03 15:22:32;;;;;;;1.40;0.88;;;10.70;99.90;;;;;;5059414;28;20084;-59
2022/02/03 15:25:02;;;;;;;1.92;0.82;;;10.70;99.90;;;;;;5059413;28;20079;-59
2022/02/03 15:27:29;;;;;;;1.42;0.98;;;10.70;99.90;;;;;;5057073;28;20072;-58
2022/02/03 15:29:59;;;;;;;1.90;1.02;;;10.70;99.90;;;;;;5056952;28;20071;-59
2022/02/03 15:32:26;;;;;;;1.40;0.90;;;10.60;99.90;;;;;;5058431;28;20503;-59
2022/02/03 15:34:54;;;;;;;0.98;0.60;;;10.60;99.90;;;;;;5059507;28;20067;-59
2022/02/03 15:37:22;;;;;;;1.23;0.80;;;10.60;99.90;;;;;;5058100;28;20076;-60
2022/02/03 15:39:52;;;;;;;2.15;0.90;;;10.60;99.90;;;;;;5051718;28;20140;-60
2022/02/03 15:42:27;;;;;;;1.20;0.80;;;10.70;99.90;;;;;;5058878;28;20052;-58
2022/02/03 15:44:56;;;;;;;1.20;0.73;;;10.60;99.90;;;;;;5064915;28;20131;-58
2022/02/03 16:03:34;;;;;;;2.25;0.70;;;10.50;99.90;;;;;;5056588;28;20167;-58
2022/02/03 16:17:10;;;;;;;0.95;0.77;;;10.30;99.90;;;;;;5057523;28;20474;-58
2022/02/03 16:19:52;;;;;;;1.00;0.70;;;10.40;99.90;;;;;;5056416;28;20053;-59
2022/02/03 16:22:29;;;;;;;1.52;0.70;;;10.40;99.90;;;;;;5058036;28;20707;-57
2022/02/03 16:25:08;;;;;;;0.98;0.70;;;10.40;99.90;;;;;;5058419;28;20079;-59
2022/02/03 16:52:34;;;;;;;2.67;1.38;;;10.30;99.90;;;;;;5058457;28;20444;-58
2022/02/03 16:55:04;;;;;;;1.85;0.95;;;10.40;99.90;;;;;;5057840;28;20514;-58
2022/02/03 16:57:31;;;;;;;3.50;1.25;;;10.40;99.90;;;;;;5057773;28;20496;-58
2022/02/03 17:00:04;;;;;;;2.45;1.17;;;10.40;99.90;;;;;;5056661;28;20580;-58
2022/02/03 17:02:51;;;;;;;2.08;0.82;;;10.40;99.90;;;;;;5056720;28;20151;-58
2022/02/03 17:05:18;;;;;;;1.80;0.80;;;10.40;99.90;;;;;;5056430;28;20045;-58
2022/02/03 17:07:45;;;;;;;2.55;1.23;;;10.30;99.90;;;;;;5057976;28;20149;-58
2022/02/03 17:10:11;;;;;;;1.50;1.13;;;10.40;99.90;;;;;;5057187;28;20815;-58
2022/02/03 17:12:38;;;;;;;1.45;1.17;;;10.40;99.90;;;;;;5057589;28;20460;-58
2022/02/03 17:15:06;;;;;;;1.77;1.00;;;10.30;99.90;;;;;;5054733;28;20096;-58
2022/02/03 17:17:32;;;;;;;1.10;0.77;;;10.30;99.90;;;;;;5057329;28;20679;-56
2022/02/03 17:19:59;;;;;;;1.55;1.05;;;10.30;99.90;;;;;;5059539;28;20087;-58
2022/02/03 17:22:31;;;;;;;3.45;1.23;;;10.30;99.90;;;;;;5058926;28;20403;-58
2022/02/03 17:27:35;;;;;;;1.50;0.93;;;10.30;99.90;;;;;;5060657;28;20060;-58
2022/02/03 17:30:18;;;;;;;1.42;0.95;;;10.30;99.90;;;;;;5059813;28;20055;-58
2022/02/03 18:03:02;;;;;;;1.80;1.20;;;10.10;99.90;;;;;;5066295;28;20109;-58
2022/02/03 18:06:23;;;;;;;1.67;1.27;;;10.10;99.90;;;;;;5069677;28;20156;-59
2022/02/03 18:35:32;;;;;;;3.00;1.65;;;10.10;99.90;;;;;;5059487;28;20128;-59
2022/02/03 18:49:47;;;;;;;3.67;1.77;;;10.10;99.90;;;;;;5057154;28;20140;-58
2022/02/03 18:54:27;;;;;;;4.10;2.17;;;10.00;99.90;;;;;;5057994;28;20136;-58
2022/02/03 18:57:29;;;;;;;3.53;1.63;;;10.00;99.90;;;;;;5055893;28;20140;-58
2022/02/03 19:09:42;;;;;;;2.67;1.70;;;10.00;99.90;;;;;;5039012;28;20520;-58
2022/02/03 20:04:14;;;;;;;3.15;2.15;;;9.60;99.90;;;;;;5061411;28;20044;-58
2022/02/03 20:11:37;;;;;;;2.85;1.83;;;9.60;99.90;;;;;;5068164;28;20073;-58
2022/02/03 20:14:12;;;;;;;3.10;2.00;;;9.60;99.90;;;;;;5064345;28;20109;-58
2022/02/03 20:16:40;;;;;;;2.45;1.70;;;9.60;99.90;;;;;;5064843;28;20090;-58
2022/02/03 20:19:08;;;;;;;3.28;2.10;;;9.60;99.90;;;;;;5063615;28;20139;-58
2022/02/03 20:21:36;;;;;;;3.92;2.00;;;9.60;99.90;;;;;;5068561;28;20120;-58
2022/02/03 20:24:05;;;;;;;2.58;1.92;;;9.60;99.90;;;;;;5065228;28;20104;-58
2022/02/03 20:26:32;;;;;;;2.97;1.67;;;9.60;99.90;;;;;;5069725;28;20409;-58
2022/02/03 20:28:59;;;;;;;5.07;2.47;;;9.60;99.90;;;;;;5068592;28;20619;-58
2022/02/03 20:31:26;;;;;;;2.50;1.88;;;9.60;99.90;;;;;;5068624;28;20039;-58
2022/02/03 20:33:53;;;;;;;3.72;2.15;;;9.60;99.90;;;;;;5064794;28;20057;-57
2022/02/03 20:36:21;;;;;;;3.75;2.13;;;9.60;99.90;;;;;;5069866;28;20117;-57
2022/02/03 20:38:51;;;;;;;2.70;2.00;;;9.60;99.90;;;;;;5067681;28;20491;-58
2022/02/03 20:41:21;;;;;;;4.45;1.80;;;9.60;99.90;;;;;;5067588;28;20041;-56
2022/02/03 20:43:48;;;;;;;2.90;1.98;;;9.60;99.90;;;;;;5054153;28;20485;-59
2022/02/03 20:46:16;;;;;;;3.42;2.10;;;9.60;99.90;;;;;;5059204;28;20045;-59
2022/02/03 20:48:46;;;;;;;2.42;1.75;;;9.50;99.90;;;;;;5063117;28;20060;-59
2022/02/03 20:51:17;;;;;;;2.60;2.15;;;9.50;99.90;;;;;;5067558;28;20132;-58
2022/02/03 20:53:44;;;;;;;2.55;1.65;;;9.40;99.90;;;;;;5059945;28;20052;-58
2022/02/03 20:56:11;;;;;;;3.72;2.15;;;9.40;99.90;;;;;;5060788;28;20629;-59
2022/02/03 20:58:39;;;;;;;1.90;1.42;;;9.40;99.90;;;;;;5059394;28;20131;-58
2022/02/03 21:01:13;;;;;;;3.20;1.98;;;9.40;99.90;;;;;;5065129;28;20123;-58
2022/02/03 21:03:43;;;;;;;2.65;1.83;;;9.40;99.90;;;;;;5058259;28;20696;-58
2022/02/03 21:06:12;;;;;;;2.10;1.50;;;9.40;99.90;;;;;;5062761;28;20471;-58
2022/02/03 21:08:42;;;;;;;2.35;1.58;;;9.40;99.90;;;;;;5060278;28;20084;-58
2022/02/03 21:11:09;;;;;;;2.58;1.70;;;9.30;99.90;;;;;;5062241;28;20132;-59
2022/02/03 21:13:37;;;;;;;1.92;1.73;;;9.30;99.90;;;;;;5060610;28;20091;-58
2022/02/03 21:16:06;;;;;;;2.60;2.08;;;9.20;99.90;;;;;;5060746;28;20137;-58
2022/02/03 21:18:37;;;;;;;4.30;2.13;;;9.20;99.90;;;;;;5060427;28;20140;-58
2022/02/03 21:21:05;;;;;;;3.28;1.92;;;9.20;99.90;;;;;;5050277;28;20175;-59
2022/02/03 21:23:32;;;;;;;3.85;1.92;;;9.20;99.90;;;;;;5062394;28;20080;-58
2022/02/03 21:26:02;;;;;;;2.88;1.73;;;9.20;99.90;;;;;;5063090;28;20052;-58
2022/02/03 21:28:32;;;;;;;3.42;1.67;;;9.10;99.90;;;;;;5061237;28;20048;-58
2022/02/03 21:30:59;;;;;;;4.07;1.92;;;9.10;99.90;;;;;;5062989;28;20091;-59
2022/02/03 21:33:30;;;;;;;2.53;1.30;;;9.10;99.90;;;;;;5061488;28;20080;-59
2022/02/03 21:36:00;;;;;;;3.05;1.65;;;9.10;99.90;;;;;;5062580;28;20143;-58
2022/02/03 21:38:27;;;;;;;2.00;1.50;;;9.10;99.90;;;;;;5067621;28;20087;-59
2022/02/03 21:40:55;;;;;;;3.30;1.42;;;9.10;99.90;;;;;;5060509;28;20726;-59
2022/02/03 21:43:22;;;;;;;3.25;1.88;;;9.10;99.90;;;;;;5058978;28;20097;-59
2022/02/03 21:45:48;;;;;;;2.65;1.52;;;9.10;99.90;;;;;;5061746;28;20055;-59
2022/02/03 21:48:15;;;;;;;2.33;1.70;;;9.20;99.90;;;;;;5060525;28;20228;-59
2022/02/03 21:50:43;;;;;;;2.22;1.40;;;9.20;99.90;;;;;;5059876;28;20160;-59
2022/02/03 21:53:17;;;;;;;3.17;1.63;;;9.20;99.90;;;;;;5059741;28;20171;-59
2022/02/03 21:55:45;;;;;;;2.20;1.50;;;9.20;99.90;;;;;;5062433;28;20133;-60
2022/02/03 21:58:12;;;;;;;2.42;1.52;;;9.20;99.90;;;;;;5059509;28;20587;-59
2022/02/03 22:00:39;;;;;;;2.50;1.30;;;9.20;99.90;;;;;;5059599;28;20076;-58
2022/02/03 22:03:06;;;;;;;3.03;1.30;;;9.20;99.90;;;;;;5059737;28;20060;-59
2022/02/03 22:05:33;;;;;;;1.65;1.17;;;9.20;99.90;;;;;;5061277;28;20135;-59
2022/02/03 22:08:00;;;;;;;1.83;1.40;;;9.20;99.90;;;;;;5060524;28;20106;-59
2022/02/03 22:10:27;;;;;;;2.67;1.50;;;9.20;99.90;;;;;;5058990;28;20182;-59
2022/02/03 22:12:54;;;;;;;2.20;1.52;;;9.20;99.90;;;;;;5060485;28;20628;-59
2022/02/03 22:15:21;;;;;;;4.15;2.00;;;9.30;99.90;;;;;;5059353;28;20140;-59
2022/02/03 22:17:48;;;;;;;4.55;2.17;;;9.30;99.90;;;;;;5059941;28;20091;-58
2022/02/03 22:20:25;;;;;;;1.80;1.60;;;9.30;99.90;;;;;;5073872;28;20060;-59
2022/02/03 22:45:25;;;;;;;3.15;1.77;;;9.00;99.90;;;;;;5057868;28;20072;-59
2022/02/03 22:47:36;;;;;;;2.50;1.63;;;8.90;99.90;;;;;;5051125;28;20450;-59
2022/02/03 22:50:04;;;;;;;3.90;1.70;;;8.90;99.90;;;;;;5080681;28;20048;-59
2022/02/03 22:52:32;;;;;;;2.95;1.70;;;8.90;99.90;;;;;;5061070;28;20079;-58
2022/02/03 22:54:59;;;;;;;4.00;1.30;;;8.90;99.90;;;;;;5060277;28;20567;-61
2022/02/03 22:57:26;;;;;;;1.65;1.33;;;8.90;99.90;;;;;;5059649;28;20147;-59
2022/02/03 23:02:58;;;;;;;3.38;1.63;;;9.00;99.90;;;;;;5036417;28;20049;-59
2022/02/03 23:05:24;;;;;;;1.88;1.30;;;9.00;99.90;;;;;;5037502;28;20828;-59
2022/02/03 23:08:05;;;;;;;3.55;1.20;;;9.00;99.90;;;;;;5038800;28;20137;-59
2022/02/03 23:10:59;;;;;;;2.45;1.25;;;9.10;99.90;;;;;;5055723;28;20148;-59
2022/02/03 23:13:56;;;;;;;3.55;1.20;;;9.10;99.90;;;;;;5059319;28;20160;-58
2022/02/03 23:21:29;;;;;;;2.22;1.23;;;9.30;99.90;;;;;;5059880;28;20048;-59
2022/02/03 23:23:56;;;;;;;;;;;9.30;99.90;;;;;;5057815;28;20635;-59
2022/02/03 23:26:26;;;;;;;3.03;1.58;;;9.30;99.90;;;;;;5071865;28;19980;-59
2022/02/03 23:28:58;;;;;;;2.22;1.10;;;9.30;99.90;;;;;;5073945;28;20048;-58
2022/02/03 23:31:28;;;;;;;2.20;0.93;;;9.30;99.90;;;;;;5057360;28;20449;-59
2022/02/03 23:33:55;;;;;;;2.40;1.10;;;9.40;99.90;;;;;;5064461;28;20060;-59
2022/02/03 23:36:22;;;;;;;2.67;1.30;;;9.40;99.90;;;;;;5062239;28;20068;-59
2022/02/03 23:39:03;;;;;;;5.10;1.45;;;9.40;99.90;;;;;;5061101;28;20132;-59
2022/02/03 23:42:09;;;;;;;4.68;1.40;;;9.30;99.90;;;;;;5061052;28;20045;-59
2022/02/03 23:44:26;;;;;;;4.47;1.67;;;9.40;99.90;;;;;;5059186;28;20084;-58
